United Spirit — ELYB2 — position and weather

sailwx.info

Track history (hours):
 
Tides and Currents Weather Stations Pressure Air Temp Water Temp Dewpoint Dewpoint Depression Visibility Wind Speed Wind Dir Waves Ship Positions

United Spirit

Last reported at 2017-Feb-27 13:28 UTC. Time now 2017-Feb-27 15:52 UTC.
Position N 33°44' W 118°16'.

Type: Cargo ship. MMSI: 636011280.

Date/timePositionNaut miles runAvg speedWind from/ knotsBaromVisibWave heightAir tempDewpointWater temp
2017-Feb-27 13:28N 33°44' W 118°16'7 6.5
2017-Feb-27 12:25N 33°37' W 118°17'  
2017-Feb-23 17:05N 48°17' W 125°22'713.7
2017-Feb-23 16:33N 48°21' W 125°13'1615.7
2017-Feb-23 15:33N 48°31' W 124°55'1717.0
2017-Feb-23 14:33N 48°27' W 124°30'1817.6
2017-Feb-23 13:33N 48°20' W 124°05'1717.3
2017-Feb-23 12:33N 48°16' W 123°39'1111.5
2017-Feb-23 11:33N 48°22' W 123°25'1110.8
2017-Feb-23 10:34N 48°29' W 123°12'1514.6
2017-Feb-23 09:33N 48°44' W 123°10'1110.7
2017-Feb-23 08:33N 48°54' W 123°09'1313.4
2017-Feb-23 07:33N 49°06' W 123°19'10 9.9
2017-Feb-23 06:33N 49°07' W 123°05'7 7.2
2017-Feb-23 05:34N 49°11' W 122°55'0 0.0
2017-Feb-23 04:34N 49°11' W 122°55'0 0.0
2017-Feb-23 03:33N 49°11' W 122°55'0 0.0
2017-Feb-23 02:33N 49°11' W 122°55'0 0.0
2017-Feb-23 01:34N 49°11' W 122°55'0 0.0
2017-Feb-23 00:33N 49°11' W 122°55'0 0.0
2017-Feb-22 23:33N 49°11' W 122°55'0 0.0
2017-Feb-22 22:25N 49°11' W 122°55'0 0.0
2017-Feb-22 21:34N 49°11' W 122°55'1 1.1
2017-Feb-22 20:33N 49°10' W 122°56'1010.5
2017-Feb-22 19:33N 49°07' W 123°11'6 6.3
2017-Feb-22 18:33N 49°02' W 123°17'1615.9
2017-Feb-22 17:34N 48°50' W 123°01'1313.5
2017-Feb-22 16:33N 48°40' W 123°14'1515.4
2017-Feb-22 15:34N 48°24' W 123°12'7 6.9
2017-Feb-22 14:32N 48°20' W 123°21'0 0.1
2017-Feb-22 13:32N 48°20' W 123°21'0 0.0
2017-Feb-22 12:32N 48°21' W 123°21'0 0.0
2017-Feb-22 11:32N 48°20' W 123°21'0 0.0
2017-Feb-22 10:32N 48°20' W 123°21'0 0.0
2017-Feb-22 09:32N 48°21' W 123°21'0 0.0
2017-Feb-22 08:32N 48°20' W 123°21'0 0.0
2017-Feb-22 07:32N 48°20' W 123°21'0 0.0
2017-Feb-22 06:32N 48°21' W 123°21'0 0.0
2017-Feb-22 05:32N 48°21' W 123°21'0 0.0
2017-Feb-22 04:32N 48°21' W 123°21'0 0.1
2017-Feb-22 03:32N 48°20' W 123°21'0 0.0
2017-Feb-22 02:32N 48°20' W 123°21'0 0.1
2017-Feb-22 01:32N 48°20' W 123°21'0 0.0
2017-Feb-22 00:32N 48°20' W 123°21'0 0.1
2017-Feb-21 23:32N 48°21' W 123°21'0 0.1
2017-Feb-21 22:32N 48°20' W 123°21'0 0.1
2017-Feb-21 21:32N 48°21' W 123°21'0 0.0
2017-Feb-21 20:32N 48°20' W 123°21'0 0.0
2017-Feb-21 19:32N 48°20' W 123°21'0 0.0
2017-Feb-21 18:32N 48°20' W 123°21'0 0.1
2017-Feb-21 17:32N 48°20' W 123°21'0 0.0
2017-Feb-21 16:32N 48°20' W 123°21'0 0.0
2017-Feb-21 15:33N 48°20' W 123°21'1 1.0
2017-Feb-21 14:33N 48°20' W 123°22'7 6.6
2017-Feb-21 13:33N 48°15' W 123°28'8 8.0
2017-Feb-21 12:33N 48°13' W 123°40'1312.7
2017-Feb-21 11:33N 48°15' W 123°59'1414.1
2017-Feb-21 10:34N 48°21' W 124°18'1515.1
2017-Feb-21 09:34N 48°27' W 124°39'1413.6
2017-Feb-21 08:34N 48°29' W 124°59'1313.2
2017-Feb-21 07:33N 48°29' W 125°19'1313.3
2017-Feb-21 06:33N 48°30' W 125°40'1313.5
2017-Feb-21 05:33N 48°30' W 125°60'  
Track history (hours):
 
Tides and Currents Weather Stations Pressure Air Temp Water Temp Dewpoint Dewpoint Depression Visibility Wind Speed Wind Dir Waves Ship Positions

United Spirit

Last reported at 2017-Feb-27 13:28 UTC. Time now 2017-Feb-27 15:52 UTC.
Position N 33°44' W 118°16'.

Type: Cargo ship. MMSI: 636011280.

Date/timePositionNaut miles runAvg speedWind from/ knotsBaromVisibWave heightAir tempDewpointWater temp
2017-Feb-27 13:28N 33°44' W 118°16'7 6.5
2017-Feb-27 12:25N 33°37' W 118°17'  
2017-Feb-23 17:05N 48°17' W 125°22'713.7
2017-Feb-23 16:33N 48°21' W 125°13'1615.7
2017-Feb-23 15:33N 48°31' W 124°55'1717.0
2017-Feb-23 14:33N 48°27' W 124°30'1817.6
2017-Feb-23 13:33N 48°20' W 124°05'1717.3
2017-Feb-23 12:33N 48°16' W 123°39'1111.5
2017-Feb-23 11:33N 48°22' W 123°25'1110.8
2017-Feb-23 10:34N 48°29' W 123°12'1514.6
2017-Feb-23 09:33N 48°44' W 123°10'1110.7
2017-Feb-23 08:33N 48°54' W 123°09'1313.4
2017-Feb-23 07:33N 49°06' W 123°19'10 9.9
2017-Feb-23 06:33N 49°07' W 123°05'7 7.2
2017-Feb-23 05:34N 49°11' W 122°55'0 0.0
2017-Feb-23 04:34N 49°11' W 122°55'0 0.0
2017-Feb-23 03:33N 49°11' W 122°55'0 0.0
2017-Feb-23 02:33N 49°11' W 122°55'0 0.0
2017-Feb-23 01:34N 49°11' W 122°55'0 0.0
2017-Feb-23 00:33N 49°11' W 122°55'0 0.0
2017-Feb-22 23:33N 49°11' W 122°55'0 0.0
2017-Feb-22 22:25N 49°11' W 122°55'0 0.0
2017-Feb-22 21:34N 49°11' W 122°55'1 1.1
2017-Feb-22 20:33N 49°10' W 122°56'1010.5
2017-Feb-22 19:33N 49°07' W 123°11'6 6.3
2017-Feb-22 18:33N 49°02' W 123°17'1615.9
2017-Feb-22 17:34N 48°50' W 123°01'1313.5
2017-Feb-22 16:33N 48°40' W 123°14'1515.4
2017-Feb-22 15:34N 48°24' W 123°12'7 6.9
2017-Feb-22 14:32N 48°20' W 123°21'0 0.1
2017-Feb-22 13:32N 48°20' W 123°21'0 0.0
2017-Feb-22 12:32N 48°21' W 123°21'0 0.0
2017-Feb-22 11:32N 48°20' W 123°21'0 0.0
2017-Feb-22 10:32N 48°20' W 123°21'0 0.0
2017-Feb-22 09:32N 48°21' W 123°21'0 0.0
2017-Feb-22 08:32N 48°20' W 123°21'0 0.0
2017-Feb-22 07:32N 48°20' W 123°21'0 0.0
2017-Feb-22 06:32N 48°21' W 123°21'0 0.0
2017-Feb-22 05:32N 48°21' W 123°21'0 0.0
2017-Feb-22 04:32N 48°21' W 123°21'0 0.1
2017-Feb-22 03:32N 48°20' W 123°21'0 0.0
2017-Feb-22 02:32N 48°20' W 123°21'0 0.1
2017-Feb-22 01:32N 48°20' W 123°21'0 0.0
2017-Feb-22 00:32N 48°20' W 123°21'0 0.1
2017-Feb-21 23:32N 48°21' W 123°21'0 0.1
2017-Feb-21 22:32N 48°20' W 123°21'0 0.1
2017-Feb-21 21:32N 48°21' W 123°21'0 0.0
2017-Feb-21 20:32N 48°20' W 123°21'0 0.0
2017-Feb-21 19:32N 48°20' W 123°21'0 0.0
2017-Feb-21 18:32N 48°20' W 123°21'0 0.1
2017-Feb-21 17:32N 48°20' W 123°21'0 0.0
2017-Feb-21 16:32N 48°20' W 123°21'0 0.0
2017-Feb-21 15:33N 48°20' W 123°21'1 1.0
2017-Feb-21 14:33N 48°20' W 123°22'7 6.6
2017-Feb-21 13:33N 48°15' W 123°28'8 8.0
2017-Feb-21 12:33N 48°13' W 123°40'1312.7
2017-Feb-21 11:33N 48°15' W 123°59'1414.1
2017-Feb-21 10:34N 48°21' W 124°18'1515.1
2017-Feb-21 09:34N 48°27' W 124°39'1413.6
2017-Feb-21 08:34N 48°29' W 124°59'1313.2
2017-Feb-21 07:33N 48°29' W 125°19'1313.3
2017-Feb-21 06:33N 48°30' W 125°40'1313.5
2017-Feb-21 05:33N 48°30' W 125°60'  

Dump ship's entire track history